Time;durP1;ratioP1;P1;durP2;ratioP2;P2;SDS_P1;SDS_P2;PMS_P1;PMS_P2;Temp;Humidity;BMP_temperature;BMP_pressure;BME280_temperature;BME280_humidity;BME280_pressure;Samples;Min_cycle;Max_cycle;Signal;HPM_P1;HPM_P2
2021/04/16 00:00:22;;;;;;;7.07;5.30;;;4.40;1.00;;;;;;4969000;28;20247;-72
2021/04/16 00:02:48;;;;;;;8.07;4.80;;;4.50;1.00;;;;;;4978382;28;20452;-72
2021/04/16 00:05:14;;;;;;;6.60;4.37;;;4.30;1.00;;;;;;4966380;28;20647;-72
2021/04/16 00:07:40;;;;;;;10.13;5.83;;;4.40;1.00;;;;;;4959844;28;20731;-71
2021/04/16 00:10:09;;;;;;;7.13;5.50;;;4.50;1.00;;;;;;4984391;28;20570;-72
2021/04/16 00:12:35;;;;;;;7.17;5.70;;;4.30;1.00;;;;;;4978422;28;20308;-72
2021/04/16 00:15:03;;;;;;;7.67;5.00;;;4.40;1.00;;;;;;4970431;28;20821;-72
2021/04/16 00:17:29;;;;;;;7.43;4.87;;;4.30;1.00;;;;;;4962347;28;20476;-72
2021/04/16 00:19:54;;;;;;;9.13;6.27;;;4.30;1.00;;;;;;4968689;28;20444;-71
2021/04/16 00:22:20;;;;;;;7.53;5.30;;;4.30;1.00;;;;;;4960626;28;20204;-72
2021/04/16 00:24:46;;;;;;;5.30;4.00;;;4.40;1.00;;;;;;4985608;28;20652;-72
2021/04/16 00:27:12;;;;;;;6.63;5.13;;;4.30;1.00;;;;;;4972653;28;20526;-72
2021/04/16 00:29:38;;;;;;;5.83;4.80;;;4.20;1.00;;;;;;4969139;28;20207;-71
2021/04/16 00:32:04;;;;;;;7.23;4.87;;;4.20;1.00;;;;;;4993981;28;21006;-71
2021/04/16 00:34:30;;;;;;;6.87;5.00;;;4.10;1.00;;;;;;4983287;28;21131;-71
2021/04/16 00:36:55;;;;;;;7.93;4.80;;;4.10;1.00;;;;;;4990011;28;20456;-71
2021/04/16 00:39:23;;;;;;;7.23;4.87;;;4.20;1.00;;;;;;4987223;28;20258;-72
2021/04/16 00:41:49;;;;;;;7.33;4.90;;;4.30;1.00;;;;;;4991529;28;20189;-71
2021/04/16 00:44:15;;;;;;;6.87;5.10;;;4.10;1.00;;;;;;4985336;28;20451;-73
2021/04/16 00:47:01;;;;;;;7.33;5.60;;;4.10;1.00;;;;;;4974249;28;20452;-72
2021/04/16 00:49:31;;;;;;;5.13;4.60;;;4.20;1.00;;;;;;4966326;28;21104;-72
2021/04/16 00:52:00;;;;;;;6.93;4.90;;;4.20;1.00;;;;;;4961525;28;20480;-72
2021/04/16 00:54:31;;;;;;;9.00;5.30;;;4.20;1.00;;;;;;4963442;28;20459;-71
2021/04/16 00:56:57;;;;;;;6.33;5.07;;;4.20;1.00;;;;;;4970219;28;22157;-72
2021/04/16 00:59:27;;;;;;;8.50;4.57;;;4.20;1.00;;;;;;4964823;28;20459;-71
2021/04/16 01:01:56;;;;;;;5.53;4.53;;;4.30;1.00;;;;;;4966542;28;21091;-72
2021/04/16 01:04:25;;;;;;;6.60;4.90;;;4.30;1.00;;;;;;4962936;28;20463;-72
2021/04/16 01:06:52;;;;;;;5.87;4.53;;;4.30;1.00;;;;;;4968911;28;20454;-72
2021/04/16 01:09:19;;;;;;;7.47;4.90;;;4.40;1.00;;;;;;4968499;28;20476;-72
2021/04/16 01:11:45;;;;;;;6.83;4.33;;;4.40;1.00;;;;;;4968774;28;21177;-73
2021/04/16 01:14:11;;;;;;;8.77;4.80;;;4.50;1.00;;;;;;4963382;28;20546;-72
2021/04/16 01:16:41;;;;;;;6.80;4.70;;;4.40;1.00;;;;;;4966114;28;20456;-72
2021/04/16 01:19:20;;;;;;;6.67;5.00;;;4.30;1.00;;;;;;4968967;28;21086;-72
2021/04/16 01:22:13;;;;;;;5.60;4.30;;;4.30;1.00;;;;;;4969397;28;21119;-72
2021/04/16 01:24:38;;;;;;;5.70;4.53;;;4.30;1.00;;;;;;4976552;28;20561;-72
2021/04/16 01:27:11;;;;;;;5.70;4.13;;;4.30;1.00;;;;;;4969603;28;20493;-71
2021/04/16 01:29:44;;;;;;;6.63;4.87;;;4.30;1.00;;;;;;4972209;28;20192;-71
2021/04/16 01:32:21;;;;;;;7.53;4.27;;;4.30;1.00;;;;;;4969462;28;20479;-71
2021/04/16 01:34:47;;;;;;;6.43;4.90;;;4.20;1.00;;;;;;4969720;28;20455;-71
2021/04/16 01:37:13;;;;;;;6.23;4.50;;;4.30;1.00;;;;;;4963455;28;20461;-71
2021/04/16 01:39:39;;;;;;;6.77;5.03;;;4.30;1.00;;;;;;4973644;28;20924;-71
2021/04/16 01:42:05;;;;;;;5.70;4.70;;;4.30;1.00;;;;;;4969336;28;20455;-71
2021/04/16 01:44:31;;;;;;;7.47;5.07;;;4.30;1.00;;;;;;4965633;28;20459;-71
2021/04/16 01:47:02;;;;;;;5.90;4.50;;;4.40;1.00;;;;;;4969760;28;20541;-71
2021/04/16 01:49:36;;;;;;;5.50;4.93;;;4.50;1.00;;;;;;4973131;28;20211;-71
2021/04/16 01:52:04;;;;;;;5.73;5.10;;;4.50;1.00;;;;;;4989270;28;20470;-72
2021/04/16 01:54:36;;;;;;;7.70;4.50;;;4.50;1.00;;;;;;4972739;28;20937;-71
2021/04/16 01:57:24;;;;;;;6.10;4.47;;;4.50;1.00;;;;;;4973638;28;20459;-72
2021/04/16 01:59:51;;;;;;;6.77;5.30;;;4.50;1.00;;;;;;4981554;28;20851;-71
2021/04/16 02:02:25;;;;;;;6.13;4.87;;;4.40;1.00;;;;;;4972008;28;21228;-71
2021/04/16 02:04:51;;;;;;;7.00;5.10;;;4.50;1.00;;;;;;4964323;28;20462;-71
2021/04/16 02:07:22;;;;;;;14.80;5.90;;;4.40;1.00;;;;;;4971612;28;20864;-71
2021/04/16 02:09:47;;;;;;;4.93;4.43;;;4.50;1.00;;;;;;4973038;28;21437;-72
2021/04/16 02:12:16;;;;;;;7.60;4.67;;;4.50;1.00;;;;;;4979117;28;20501;-73
2021/04/16 02:14:42;;;;;;;8.03;4.30;;;4.50;1.00;;;;;;4970457;28;20196;-72
2021/04/16 02:17:12;;;;;;;5.60;4.47;;;4.50;1.00;;;;;;4967683;28;20448;-72
2021/04/16 02:19:38;;;;;;;7.40;5.40;;;4.50;1.00;;;;;;4966207;28;20453;-71
2021/04/16 02:22:06;;;;;;;9.67;4.60;;;4.50;1.00;;;;;;4969391;28;20443;-72
2021/04/16 02:24:34;;;;;;;7.13;4.60;;;4.40;1.00;;;;;;4969738;28;20707;-72
2021/04/16 02:27:00;;;;;;;5.57;4.83;;;4.20;1.00;;;;;;4977071;28;21032;-72
2021/04/16 02:29:26;;;;;;;6.50;5.10;;;4.30;1.00;;;;;;4992010;28;20532;-72
2021/04/16 02:31:52;;;;;;;6.13;4.13;;;4.30;1.00;;;;;;4971182;28;20565;-72
2021/04/16 02:34:21;;;;;;;8.30;5.37;;;4.30;1.00;;;;;;4971997;28;20509;-72
2021/04/16 02:36:48;;;;;;;7.43;4.77;;;4.30;1.00;;;;;;4973918;28;22059;-72
2021/04/16 02:39:14;;;;;;;7.43;4.77;;;4.30;1.00;;;;;;4968505;28;20967;-72
2021/04/16 02:41:41;;;;;;;5.77;5.13;;;4.40;1.00;;;;;;4976194;28;20448;-72
2021/04/16 02:44:06;;;;;;;6.07;4.77;;;4.30;1.00;;;;;;4965654;28;21020;-72
2021/04/16 02:46:33;;;;;;;6.07;4.80;;;4.30;1.00;;;;;;4970068;28;21103;-72
2021/04/16 02:49:00;;;;;;;6.90;5.23;;;4.40;1.00;;;;;;4995554;28;20239;-72
2021/04/16 02:51:26;;;;;;;11.10;5.10;;;4.40;1.00;;;;;;4972295;28;20482;-72
2021/04/16 02:53:52;;;;;;;5.40;4.90;;;4.30;1.00;;;;;;4967436;28;21020;-72
2021/04/16 02:56:17;;;;;;;7.13;5.40;;;4.30;1.00;;;;;;4971067;28;20470;-72
2021/04/16 02:58:43;;;;;;;7.30;5.00;;;4.40;1.00;;;;;;4979509;28;20184;-72
2021/04/16 03:01:09;;;;;;;6.17;4.30;;;4.50;1.00;;;;;;4973428;28;20564;-72
2021/04/16 03:03:35;;;;;;;5.70;4.90;;;4.40;1.00;;;;;;4978116;28;20495;-72
2021/04/16 03:06:05;;;;;;;7.67;5.20;;;4.40;1.00;;;;;;4971138;28;20231;-72
2021/04/16 03:08:32;;;;;;;7.43;5.53;;;4.40;1.00;;;;;;4971357;28;20610;-72
2021/04/16 03:10:58;;;;;;;6.00;4.77;;;4.40;1.00;;;;;;4986477;28;20454;-72
2021/04/16 03:13:23;;;;;;;8.40;4.30;;;4.30;1.00;;;;;;4972949;28;20448;-72
2021/04/16 03:15:50;;;;;;;6.30;5.30;;;4.30;1.00;;;;;;4975840;28;20785;-72
2021/04/16 03:18:17;;;;;;;5.93;5.03;;;4.40;1.00;;;;;;4971362;28;21374;-72
2021/04/16 03:20:46;;;;;;;8.77;5.30;;;4.40;1.00;;;;;;4979713;28;20771;-72
2021/04/16 03:23:12;;;;;;;8.40;4.70;;;4.40;1.00;;;;;;4964219;28;20477;-72
2021/04/16 03:25:38;;;;;;;9.03;4.97;;;4.40;1.00;;;;;;4971961;28;20452;-73
2021/04/16 03:28:04;;;;;;;7.40;4.97;;;4.50;1.00;;;;;;4988125;28;20451;-71
2021/04/16 03:30:31;;;;;;;9.00;5.07;;;4.40;1.00;;;;;;4969868;28;20451;-73
2021/04/16 03:32:56;;;;;;;7.17;4.70;;;4.40;1.00;;;;;;4963624;28;20484;-73
2021/04/16 03:35:23;;;;;;;5.50;4.90;;;4.40;1.00;;;;;;4963948;28;20483;-73
2021/04/16 03:37:49;;;;;;;6.47;4.37;;;4.30;1.00;;;;;;4986957;28;20486;-73
2021/04/16 03:40:19;;;;;;;6.10;5.30;;;4.30;1.00;;;;;;4967060;28;20493;-72
2021/04/16 03:42:45;;;;;;;7.60;4.93;;;4.20;1.00;;;;;;4969595;28;21377;-72
2021/04/16 03:45:14;;;;;;;5.53;4.17;;;4.30;1.00;;;;;;4971274;28;20817;-73
2021/04/16 03:47:43;;;;;;;7.73;5.77;;;4.40;1.00;;;;;;4988661;28;20204;-73
2021/04/16 03:50:11;;;;;;;6.87;5.13;;;4.40;1.00;;;;;;4971962;28;20580;-73
2021/04/16 03:52:37;;;;;;;7.77;5.07;;;4.30;1.00;;;;;;4965371;28;20574;-73
2021/04/16 03:55:04;;;;;;;6.37;4.63;;;4.30;1.00;;;;;;4969183;28;20473;-72
2021/04/16 03:57:30;;;;;;;8.00;5.80;;;4.20;1.00;;;;;;4970599;28;20199;-71
2021/04/16 03:59:57;;;;;;;6.10;5.40;;;4.20;1.00;;;;;;4979414;28;20602;-71
2021/04/16 04:02:24;;;;;;;5.80;4.30;;;4.10;1.00;;;;;;4977236;28;20946;-71
2021/04/16 04:04:50;;;;;;;8.60;5.80;;;4.20;1.00;;;;;;4978660;28;20451;-71
2021/04/16 04:07:16;;;;;;;11.53;5.70;;;4.10;1.00;;;;;;4968644;28;20905;-71
2021/04/16 04:09:42;;;;;;;6.17;5.13;;;4.00;1.00;;;;;;4966934;28;20474;-71
2021/04/16 04:12:09;;;;;;;7.50;5.60;;;4.00;1.00;;;;;;4970107;28;20901;-72
2021/04/16 04:14:35;;;;;;;7.43;5.93;;;3.90;1.00;;;;;;4965464;28;20188;-71
2021/04/16 04:17:04;;;;;;;8.77;5.77;;;3.90;1.00;;;;;;4967239;28;20546;-72
2021/04/16 04:19:32;;;;;;;7.83;5.50;;;3.80;1.00;;;;;;4963134;28;20593;-71
2021/04/16 04:21:58;;;;;;;9.50;6.37;;;3.80;1.00;;;;;;4969054;28;20465;-71
2021/04/16 04:24:27;;;;;;;8.90;5.27;;;3.80;1.00;;;;;;4970346;28;20554;-72
2021/04/16 04:26:53;;;;;;;6.83;5.30;;;3.70;1.00;;;;;;4970484;28;20474;-72
2021/04/16 04:29:22;;;;;;;7.50;5.67;;;3.70;1.00;;;;;;4970642;28;20519;-72
2021/04/16 04:31:48;;;;;;;8.23;6.23;;;3.60;1.00;;;;;;4977466;28;20476;-72
2021/04/16 04:34:23;;;;;;;9.67;6.40;;;3.60;1.00;;;;;;4970626;28;20852;-72
2021/04/16 04:36:52;;;;;;;7.60;5.10;;;3.70;1.00;;;;;;4968017;28;21477;-72
2021/04/16 04:39:23;;;;;;;9.27;6.30;;;3.70;1.00;;;;;;4982111;28;20456;-72
2021/04/16 04:41:49;;;;;;;8.23;4.60;;;3.80;1.00;;;;;;4964880;28;20444;-72
2021/04/16 04:44:18;;;;;;;8.37;6.27;;;3.70;1.00;;;;;;4964099;28;20453;-71
2021/04/16 04:46:44;;;;;;;10.33;6.30;;;3.70;1.00;;;;;;4975061;28;20216;-71
2021/04/16 04:49:10;;;;;;;11.70;7.00;;;3.70;1.00;;;;;;4974027;28;20835;-71
2021/04/16 04:51:37;;;;;;;8.30;5.77;;;3.70;1.00;;;;;;4982483;28;20476;-72
2021/04/16 04:54:04;;;;;;;9.63;6.83;;;3.60;1.00;;;;;;4976717;28;20469;-72
2021/04/16 04:56:33;;;;;;;5.57;4.97;;;3.60;1.00;;;;;;4978235;28;20459;-72
2021/04/16 04:59:00;;;;;;;7.60;6.60;;;3.70;1.00;;;;;;4977974;28;20556;-72
2021/04/16 05:01:26;;;;;;;9.80;6.20;;;3.70;1.00;;;;;;4975810;28;20462;-71
2021/04/16 05:03:52;;;;;;;9.83;6.10;;;3.70;1.00;;;;;;4973792;28;20439;-72
2021/04/16 05:06:17;;;;;;;11.20;7.20;;;3.80;1.00;;;;;;4978058;28;20716;-72
2021/04/16 05:08:46;;;;;;;11.70;7.40;;;3.80;1.00;;;;;;4966111;28;20211;-72
2021/04/16 05:11:12;;;;;;;7.60;6.40;;;3.70;1.00;;;;;;4990078;28;20217;-71
2021/04/16 05:13:38;;;;;;;8.07;5.77;;;3.70;1.00;;;;;;5000897;28;21041;-71
2021/04/16 05:16:04;;;;;;;9.80;6.83;;;3.50;1.00;;;;;;4981018;28;20235;-71
2021/04/16 05:18:30;;;;;;;15.03;6.30;;;3.30;1.00;;;;;;4981893;28;21217;-70
2021/04/16 05:20:56;;;;;;;8.47;6.60;;;3.20;1.00;;;;;;4986015;28;20631;-71
2021/04/16 05:23:22;;;;;;;8.50;6.37;;;3.30;1.00;;;;;;4977336;28;20947;-71
2021/04/16 05:25:48;;;;;;;8.63;6.70;;;3.40;1.00;;;;;;4986879;28;20208;-72
2021/04/16 05:28:13;;;;;;;8.33;6.90;;;3.40;1.00;;;;;;4990179;28;20461;-72
2021/04/16 05:30:39;;;;;;;8.73;6.50;;;3.40;1.00;;;;;;4985685;28;20749;-71
2021/04/16 05:33:05;;;;;;;10.60;7.10;;;3.30;1.00;;;;;;4984525;28;20220;-72
2021/04/16 05:35:30;;;;;;;9.03;7.27;;;3.40;1.00;;;;;;4977075;28;20475;-71
2021/04/16 05:37:57;;;;;;;8.43;6.43;;;3.70;1.00;;;;;;4977141;28;20709;-71
2021/04/16 05:40:25;;;;;;;9.90;6.70;;;3.70;1.00;;;;;;4983488;28;20209;-71
2021/04/16 05:42:52;;;;;;;10.87;8.27;;;3.80;1.00;;;;;;4990701;28;20462;-72
2021/04/16 05:45:18;;;;;;;8.77;6.83;;;3.90;1.00;;;;;;4971100;28;20970;-71
2021/04/16 05:47:44;;;;;;;9.30;7.17;;;4.00;1.00;;;;;;4979557;28;20842;-72
2021/04/16 05:50:11;;;;;;;17.30;8.80;;;4.10;1.00;;;;;;4971743;28;20876;-72
2021/04/16 05:52:37;;;;;;;9.67;6.83;;;4.20;1.00;;;;;;4974643;28;20487;-72
2021/04/16 05:55:03;;;;;;;11.10;8.00;;;4.20;1.00;;;;;;4974646;28;20716;-71
2021/04/16 05:57:29;;;;;;;9.10;7.60;;;4.20;1.00;;;;;;4977491;28;20180;-72
2021/04/16 05:59:55;;;;;;;8.83;7.03;;;4.20;1.00;;;;;;4979424;28;20569;-72
2021/04/16 06:02:36;;;;;;;8.03;6.67;;;4.20;1.00;;;;;;4976023;28;20320;-72
2021/04/16 06:05:06;;;;;;;10.23;5.93;;;4.20;1.00;;;;;;4976296;28;20622;-73
2021/04/16 06:07:32;;;;;;;9.97;6.77;;;4.40;1.00;;;;;;4978124;28;20439;-72
2021/04/16 06:10:01;;;;;;;14.60;6.07;;;4.50;1.00;;;;;;4980683;28;20541;-72
2021/04/16 06:12:27;;;;;;;8.73;7.47;;;4.70;1.00;;;;;;4980585;28;20259;-71
2021/04/16 06:14:52;;;;;;;11.00;7.07;;;4.70;1.00;;;;;;4977654;28;20587;-72
2021/04/16 06:17:21;;;;;;;10.37;6.97;;;4.70;1.00;;;;;;4978528;28;20959;-72
2021/04/16 06:19:49;;;;;;;11.67;7.50;;;4.70;1.00;;;;;;4982429;28;20584;-72
2021/04/16 06:22:20;;;;;;;12.73;8.10;;;4.90;1.00;;;;;;4971776;28;20463;-72
2021/04/16 06:24:46;;;;;;;9.67;7.40;;;4.80;1.00;;;;;;4973184;28;20998;-71
2021/04/16 06:27:16;;;;;;;10.97;6.97;;;4.90;1.00;;;;;;4975696;28;20663;-72
2021/04/16 06:29:47;;;;;;;15.00;8.47;;;4.90;1.00;;;;;;4978616;28;20451;-71
2021/04/16 06:32:15;;;;;;;13.40;8.27;;;4.90;1.00;;;;;;4971539;28;20475;-72
2021/04/16 06:34:42;;;;;;;9.33;6.07;;;5.00;1.00;;;;;;4984686;28;20653;-72
2021/04/16 06:37:08;;;;;;;11.23;7.10;;;5.00;1.00;;;;;;4986718;28;20886;-71
2021/04/16 06:39:34;;;;;;;9.30;7.60;;;5.10;1.00;;;;;;4972266;28;20557;-72
2021/04/16 06:42:04;;;;;;;9.73;7.10;;;5.20;1.00;;;;;;4983126;28;20623;-72
2021/04/16 06:44:33;;;;;;;13.40;8.30;;;5.30;1.00;;;;;;4983054;28;20315;-72
2021/04/16 06:47:19;;;;;;;11.00;8.20;;;5.40;1.00;;;;;;4979722;28;20460;-72
2021/04/16 06:49:45;;;;;;;19.80;8.60;;;5.40;1.00;;;;;;4978710;28;20467;-72
2021/04/16 06:52:20;;;;;;;14.43;8.40;;;5.40;1.00;;;;;;4981045;28;20481;-72
2021/04/16 06:55:15;;;;;;;12.13;8.20;;;5.60;1.00;;;;;;4989324;28;20455;-72
2021/04/16 06:58:08;;;;;;;11.47;8.10;;;5.60;1.00;;;;;;4978508;28;20458;-71
2021/04/16 07:00:41;;;;;;;16.90;8.40;;;5.70;1.00;;;;;;4983894;28;20705;-72
2021/04/16 07:03:10;;;;;;;13.07;8.10;;;5.80;1.00;;;;;;4972673;28;20518;-72
2021/04/16 07:06:16;;;;;;;10.13;7.40;;;5.90;1.00;;;;;;4964146;28;20901;-72
2021/04/16 07:09:04;;;;;;;12.83;7.90;;;6.10;1.00;;;;;;4981559;28;20637;-72
2021/04/16 07:11:53;;;;;;;12.60;7.43;;;6.20;1.00;;;;;;4972173;28;21522;-71
2021/04/16 07:14:42;;;;;;;11.13;7.67;;;6.40;1.00;;;;;;4973042;28;20447;-71
2021/04/16 07:17:14;;;;;;;9.50;6.70;;;6.40;1.00;;;;;;4973105;28;20479;-71
2021/04/16 07:19:40;;;;;;;9.90;7.27;;;6.50;1.00;;;;;;4986642;28;22116;-71
2021/04/16 07:22:40;;;;;;;10.50;6.70;;;6.70;1.00;;;;;;4978931;28;20441;-72
2021/04/16 07:25:39;;;;;;;8.03;6.63;;;6.80;1.00;;;;;;4963627;28;20479;-72
2021/04/16 07:28:15;;;;;;;11.50;7.63;;;6.80;1.00;;;;;;4953457;28;20510;-72
2021/04/16 07:30:47;;;;;;;9.07;5.93;;;7.00;1.00;;;;;;4971771;28;20849;-72
2021/04/16 07:33:49;;;;;;;6.00;4.33;;;7.10;1.00;;;;;;4957586;28;20701;-71
2021/04/16 07:36:39;;;;;;;11.20;4.60;;;7.10;1.00;;;;;;4955187;28;20474;-71
2021/04/16 07:39:31;;;;;;;9.33;5.53;;;7.10;1.00;;;;;;4956923;28;20542;-72
2021/04/16 07:42:24;;;;;;;8.30;5.60;;;7.10;1.00;;;;;;4970555;28;21263;-72
2021/04/16 07:45:19;;;;;;;6.50;4.53;;;7.30;1.00;;;;;;4980997;28;21239;-72
2021/04/16 07:47:48;;;;;;;17.27;4.40;;;7.30;1.00;;;;;;4959502;28;20464;-71
2021/04/16 07:50:41;;;;;;;7.30;4.57;;;7.20;1.00;;;;;;4960371;28;20580;-72
2021/04/16 07:53:28;;;;;;;7.90;5.37;;;7.20;1.00;;;;;;4960999;28;20554;-72
2021/04/16 07:56:15;;;;;;;8.53;5.53;;;7.30;1.00;;;;;;4958999;28;20477;-72
2021/04/16 07:59:04;;;;;;;9.30;5.17;;;7.40;1.00;;;;;;4958505;28;20877;-71
2021/04/16 08:01:37;;;;;;;4.90;4.40;;;7.40;1.00;;;;;;4961404;28;20489;-72
2021/04/16 08:04:11;;;;;;;7.50;4.93;;;7.30;1.00;;;;;;4963368;28;20787;-71
2021/04/16 08:06:43;;;;;;;8.13;5.43;;;7.40;1.00;;;;;;4957720;28;20457;-70
2021/04/16 08:09:29;;;;;;;11.47;5.07;;;7.40;1.00;;;;;;4956701;28;20470;-71
2021/04/16 08:12:07;;;;;;;7.90;4.40;;;7.50;1.00;;;;;;4959808;28;21984;-71
2021/04/16 08:14:36;;;;;;;9.37;5.10;;;7.60;1.00;;;;;;4958018;28;20450;-72
2021/04/16 08:17:14;;;;;;;7.97;4.50;;;7.50;1.00;;;;;;4960885;28;20527;-71
2021/04/16 08:19:40;;;;;;;6.03;3.70;;;7.70;1.00;;;;;;4964889;28;20462;-72
2021/04/16 08:22:46;;;;;;;4.40;3.20;;;7.80;1.00;;;;;;4965300;28;20446;-72
2021/04/16 08:25:16;;;;;;;5.80;3.60;;;7.90;1.00;;;;;;4954924;28;20575;-73
2021/04/16 08:27:56;;;;;;;5.10;3.07;;;7.80;1.00;;;;;;4954831;28;20537;-71
2021/04/16 08:30:27;;;;;;;3.77;3.37;;;7.90;1.00;;;;;;4961329;28;20454;-72
2021/04/16 08:33:21;;;;;;;5.93;2.70;;;7.90;1.00;;;;;;4965920;28;20480;-72
2021/04/16 08:35:49;;;;;;;3.97;3.47;;;7.80;1.00;;;;;;4958237;28;20524;-72
2021/04/16 08:38:22;;;;;;;4.70;3.53;;;7.90;1.00;;;;;;4954951;28;20446;-72
2021/04/16 08:40:52;;;;;;;7.23;4.00;;;8.00;1.00;;;;;;4958572;28;20223;-72
2021/04/16 08:43:37;;;;;;;4.53;3.20;;;8.20;1.00;;;;;;4956076;28;20542;-71
2021/04/16 08:46:25;;;;;;;9.40;3.40;;;8.10;1.00;;;;;;4977119;28;20486;-72
2021/04/16 08:48:55;;;;;;;5.10;2.80;;;8.20;1.00;;;;;;4964778;28;20514;-72
2021/04/16 08:51:36;;;;;;;5.47;2.93;;;8.40;1.00;;;;;;4956501;28;20479;-71
2021/04/16 08:54:10;;;;;;;6.27;3.30;;;8.40;1.00;;;;;;4967305;28;20461;-72
2021/04/16 08:56:51;;;;;;;4.80;3.03;;;8.40;1.00;;;;;;4955376;28;20462;-72
2021/04/16 08:59:21;;;;;;;4.40;3.23;;;8.30;1.00;;;;;;4951562;28;21437;-70
2021/04/16 09:02:06;;;;;;;10.00;3.83;;;8.30;1.00;;;;;;4959589;28;21806;-71
2021/04/16 09:04:31;;;;;;;6.77;4.03;;;8.40;1.00;;;;;;4951880;28;20963;-71
2021/04/16 09:07:00;;;;;;;6.40;2.83;;;8.60;1.00;;;;;;4954352;28;20483;-72
2021/04/16 09:09:52;;;;;;;5.37;3.43;;;8.90;1.00;;;;;;4963501;28;20826;-71
2021/04/16 09:12:39;;;;;;;5.30;3.50;;;9.00;1.00;;;;;;4983550;28;20827;-72
2021/04/16 09:15:25;;;;;;;5.30;3.70;;;9.00;1.00;;;;;;4989521;28;20851;-71
2021/04/16 09:17:54;;;;;;;4.03;2.70;;;8.90;1.00;;;;;;4986343;28;20451;-71
2021/04/16 09:20:26;;;;;;;2.37;1.77;;;8.80;1.00;;;;;;4984817;28;20454;-71
2021/04/16 09:22:54;;;;;;;4.20;2.70;;;8.80;1.00;;;;;;4989240;28;20592;-73
2021/04/16 09:25:41;;;;;;;9.20;3.07;;;8.90;1.00;;;;;;4981542;28;20588;-72
2021/04/16 09:28:22;;;;;;;2.93;2.63;;;8.90;1.00;;;;;;4986442;28;20448;-72
2021/04/16 09:30:50;;;;;;;4.13;2.30;;;9.20;1.00;;;;;;4987057;28;20535;-72
2021/04/16 09:33:26;;;;;;;5.20;2.73;;;9.50;1.00;;;;;;4990409;28;20479;-72
2021/04/16 09:35:58;;;;;;;5.30;2.50;;;9.50;1.00;;;;;;4986805;28;20450;-72
2021/04/16 09:38:24;;;;;;;3.90;2.47;;;9.60;1.00;;;;;;4985335;28;20451;-72
2021/04/16 09:41:08;;;;;;;5.23;3.00;;;9.80;1.00;;;;;;4988359;28;21749;-72
2021/04/16 09:43:36;;;;;;;4.57;3.30;;;9.90;1.00;;;;;;4972235;28;20200;-72
2021/04/16 09:46:30;;;;;;;2.77;2.57;;;10.00;1.00;;;;;;4984355;28;20693;-73
2021/04/16 09:49:12;;;;;;;5.97;2.93;;;9.90;1.00;;;;;;4985265;28;20452;-73
2021/04/16 09:51:47;;;;;;;5.00;2.63;;;9.80;1.00;;;;;;4979916;28;20471;-72
2021/04/16 09:54:15;;;;;;;6.27;2.97;;;9.80;1.00;;;;;;4979444;28;20453;-72
2021/04/16 09:57:03;;;;;;;4.50;2.20;;;9.90;1.00;;;;;;4979905;28;20454;-73
2021/04/16 09:59:36;;;;;;;4.23;2.87;;;9.90;1.00;;;;;;4972916;28;20482;-73
2021/04/16 10:02:11;;;;;;;3.53;1.97;;;10.00;1.00;;;;;;4973965;28;20476;-73
2021/04/16 10:05:06;;;;;;;2.93;2.10;;;10.20;1.00;;;;;;4977621;28;20844;-73
2021/04/16 10:07:43;;;;;;;4.90;2.10;;;10.20;1.00;;;;;;4972859;28;20448;-72
2021/04/16 10:10:15;;;;;;;4.00;2.27;;;10.30;1.00;;;;;;4987540;28;20844;-72
2021/04/16 10:12:41;;;;;;;3.77;2.30;;;10.20;1.00;;;;;;4985153;28;20833;-72
2021/04/16 10:15:22;;;;;;;3.67;2.10;;;10.20;1.00;;;;;;4990514;28;20819;-71
2021/04/16 10:18:00;;;;;;;4.00;2.10;;;10.10;1.00;;;;;;4993844;28;20199;-72
2021/04/16 10:20:29;;;;;;;4.50;2.00;;;9.90;1.00;;;;;;4987706;28;20480;-71
2021/04/16 10:23:06;;;;;;;6.73;2.60;;;9.90;1.00;;;;;;4981408;28;20578;-71
2021/04/16 10:27:01;;;;;;;7.20;2.83;;;10.00;1.00;;;;;;4977063;28;21145;-71
2021/04/16 10:29:58;;;;;;;4.13;2.13;;;10.00;1.00;;;;;;4977209;28;20455;-71
2021/04/16 11:07:14;;;;;;;7.30;1.80;;;10.40;1.00;;;;;;4992510;28;20458;-72
2021/04/16 11:12:01;;;;;;;3.10;2.23;;;10.70;1.00;;;;;;4982931;28;20558;-72
2021/04/16 11:21:15;;;;;;;2.03;1.70;;;11.60;1.00;;;;;;4988043;28;20800;-72
2021/04/16 12:39:13;;;;;;;3.00;2.50;;;11.80;1.00;;;;;;4972723;28;20538;-72
2021/04/16 12:41:47;;;;;;;3.23;2.40;;;11.70;1.00;;;;;;4960017;28;20549;-72
2021/04/16 12:44:34;;;;;;;5.87;3.17;;;11.80;1.00;;;;;;4974677;28;20854;-72
2021/04/16 12:47:30;;;;;;;4.60;2.80;;;11.90;1.00;;;;;;4971343;28;20449;-73
2021/04/16 12:50:01;;;;;;;4.10;2.93;;;11.70;1.00;;;;;;4979211;28;20469;-72
2021/04/16 12:52:27;;;;;;;3.93;3.03;;;11.50;1.00;;;;;;4977006;28;20582;-72
2021/04/16 12:54:53;;;;;;;4.37;2.77;;;11.40;1.00;;;;;;4978153;28;20532;-72
2021/04/16 12:57:19;;;;;;;5.30;3.33;;;11.40;1.00;;;;;;4985582;28;20510;-73
2021/04/16 12:59:45;;;;;;;3.07;2.53;;;11.60;1.00;;;;;;4971359;28;21215;-73
2021/04/16 13:02:30;;;;;;;3.00;2.70;;;11.50;1.00;;;;;;4975617;28;20192;-73
2021/04/16 13:04:58;;;;;;;5.17;2.80;;;11.40;1.00;;;;;;4982568;28;20463;-72
2021/04/16 13:07:25;;;;;;;3.70;2.73;;;11.40;1.00;;;;;;4981201;28;20456;-72
2021/04/16 13:09:51;;;;;;;3.67;2.77;;;11.30;1.00;;;;;;4971647;28;20463;-73
2021/04/16 13:12:18;;;;;;;5.20;2.73;;;11.30;1.00;;;;;;4966219;28;20839;-73
2021/04/16 13:14:50;;;;;;;4.07;3.00;;;11.30;1.00;;;;;;4969645;28;20795;-74
2021/04/16 13:17:20;;;;;;;5.60;2.90;;;11.30;1.00;;;;;;4971462;28;20766;-72
2021/04/16 13:19:50;;;;;;;8.30;3.23;;;11.30;1.00;;;;;;4970579;28;20451;-73
2021/04/16 13:22:19;;;;;;;7.80;3.47;;;11.50;1.00;;;;;;4977682;28;20536;-74
2021/04/16 13:24:47;;;;;;;4.83;3.40;;;11.60;1.00;;;;;;4973569;28;20847;-72
2021/04/16 13:27:19;;;;;;;4.30;3.20;;;11.90;1.00;;;;;;4968645;28;21000;-72
2021/04/16 13:29:44;;;;;;;3.30;2.93;;;11.90;1.00;;;;;;4981330;28;21145;-72
2021/04/16 13:32:17;;;;;;;4.27;2.70;;;12.00;1.00;;;;;;4967158;28;20474;-72
2021/04/16 13:34:44;;;;;;;3.43;2.33;;;11.90;1.00;;;;;;4982665;28;20278;-73
2021/04/16 13:37:18;;;;;;;3.90;2.87;;;12.00;1.00;;;;;;4985083;28;20530;-72
2021/04/16 13:39:51;;;;;;;3.40;2.40;;;12.00;1.00;;;;;;4981232;28;20443;-72
2021/04/16 13:42:17;;;;;;;5.10;2.90;;;11.90;1.00;;;;;;4973355;28;20471;-73
2021/04/16 13:44:43;;;;;;;8.57;4.77;;;11.90;1.00;;;;;;4973943;28;20445;-73
2021/04/16 13:47:17;;;;;;;5.33;2.70;;;11.90;1.00;;;;;;4984663;28;20466;-72
2021/04/16 13:49:42;;;;;;;6.03;3.07;;;12.00;1.00;;;;;;4977936;28;20730;-73
2021/04/16 13:52:09;;;;;;;3.70;2.43;;;12.10;1.00;;;;;;4982468;28;21353;-72
2021/04/16 13:54:36;;;;;;;4.70;2.70;;;12.00;1.00;;;;;;4972972;28;20551;-73
2021/04/16 13:57:06;;;;;;;8.57;2.83;;;11.90;1.00;;;;;;4969924;28;20483;-73
2021/04/16 13:59:32;;;;;;;5.60;3.47;;;11.70;1.00;;;;;;4969895;28;20446;-72
2021/04/16 14:01:58;;;;;;;4.27;3.07;;;11.60;1.00;;;;;;4964335;28;21132;-72
2021/04/16 14:04:36;;;;;;;3.00;2.60;;;11.50;1.00;;;;;;4966693;28;20479;-73
2021/04/16 14:07:08;;;;;;;4.83;2.87;;;11.40;1.00;;;;;;4980973;28;20458;-71
2021/04/16 14:09:35;;;;;;;4.30;3.50;;;11.40;1.00;;;;;;4971673;28;20440;-71
2021/04/16 14:12:02;;;;;;;10.70;3.63;;;11.40;1.00;;;;;;4962127;28;20469;-72
2021/04/16 14:14:30;;;;;;;4.60;3.20;;;11.60;1.00;;;;;;4939057;28;21072;-72
2021/04/16 14:17:10;;;;;;;4.90;3.33;;;11.70;1.00;;;;;;4958194;28;20450;-72
2021/04/16 14:19:56;;;;;;;8.23;4.20;;;11.80;1.00;;;;;;4955078;28;20530;-72
2021/04/16 14:22:29;;;;;;;5.33;3.60;;;11.90;1.00;;;;;;4957265;28;20462;-71
2021/04/16 14:24:55;;;;;;;2.67;2.30;;;12.00;1.00;;;;;;4979065;28;20703;-71
2021/04/16 14:27:22;;;;;;;4.43;2.90;;;11.80;1.00;;;;;;4969578;28;20459;-72
2021/04/16 14:29:51;;;;;;;3.40;2.77;;;11.70;1.00;;;;;;4967646;28;20486;-72
2021/04/16 14:32:19;;;;;;;4.73;2.47;;;11.70;1.00;;;;;;4970134;28;20514;-72
2021/04/16 14:34:45;;;;;;;3.20;2.40;;;11.50;1.00;;;;;;4965148;28;20479;-72
2021/04/16 14:37:14;;;;;;;4.37;2.43;;;11.50;1.00;;;;;;4963711;28;20474;-71
2021/04/16 14:39:40;;;;;;;3.97;2.50;;;11.40;1.00;;;;;;4973712;28;20908;-73
2021/04/16 14:42:06;;;;;;;3.50;2.57;;;11.40;1.00;;;;;;4964297;28;20465;-72
2021/04/16 14:44:32;;;;;;;4.13;2.50;;;11.40;1.00;;;;;;4958061;28;20198;-72
2021/04/16 14:46:57;;;;;;;3.57;2.63;;;11.50;1.00;;;;;;4966869;28;20196;-72
2021/04/16 14:49:27;;;;;;;5.23;2.50;;;11.50;1.00;;;;;;4958698;28;20535;-72
2021/04/16 14:51:55;;;;;;;4.47;3.00;;;11.50;1.00;;;;;;4966092;28;20483;-72
2021/04/16 14:54:36;;;;;;;5.00;2.60;;;11.50;1.00;;;;;;4958689;28;20928;-72
2021/04/16 14:57:04;;;;;;;4.90;2.87;;;11.50;1.00;;;;;;4959791;28;20463;-72
2021/04/16 14:59:33;;;;;;;3.63;2.40;;;11.50;1.00;;;;;;4954837;28;20468;-73
2021/04/16 15:01:59;;;;;;;3.70;3.03;;;11.40;1.00;;;;;;4958863;28;21269;-72
2021/04/16 15:04:25;;;;;;;5.47;2.60;;;11.30;1.00;;;;;;4948754;28;20460;-72
2021/04/16 15:07:00;;;;;;;4.90;2.67;;;11.20;1.00;;;;;;4954048;28;20216;-73
2021/04/16 15:09:36;;;;;;;3.07;2.77;;;11.10;1.00;;;;;;4962243;28;20589;-73
2021/04/16 15:12:05;;;;;;;3.63;2.50;;;11.00;1.00;;;;;;4967072;28;20485;-73
2021/04/16 15:14:34;;;;;;;4.80;2.30;;;11.00;1.00;;;;;;4959753;28;20520;-72
2021/04/16 15:17:00;;;;;;;3.80;3.10;;;11.10;1.00;;;;;;4967145;28;21424;-72
2021/04/16 15:19:31;;;;;;;4.43;2.40;;;11.10;1.00;;;;;;4963433;28;20455;-72
2021/04/16 15:22:04;;;;;;;3.03;2.57;;;11.20;1.00;;;;;;4962381;28;20915;-73
2021/04/16 15:24:30;;;;;;;3.70;2.73;;;11.40;1.00;;;;;;4962940;28;20447;-73